Terminal Aerodrome Forecast
Issued by NWS Boise, ID

Home | Current Version | Previous Version | Text Only | Print | Product List | Glossary On
Versions: 1 2 3 4 5 6 7 8 9 10 11 12 13 14 15 16 17 18 19 20 21 22 23 24 25
000
FTUS45 KBOI 190334 AAC
TAFBOI
TAF AMD
KBOI 190334Z 1904/1924 14017KT 5SM -RA BR SCT025 OVC035
      TEMPO 1904/1906 -FZRA BR OVC020
     FM190600 14011KT 3SM -RA BR OVC030
     FM191600 13010KT P6SM VCSH SCT020 OVC040=

USA.gov is the U.S. government's official web portal to all federal, state and local government web resources and services.